Time;durP1;ratioP1;P1;durP2;ratioP2;P2;SDS_P1;SDS_P2;PMS_P1;PMS_P2;Temp;Humidity;BMP_temperature;BMP_pressure;BME280_temperature;BME280_humidity;BME280_pressure;Samples;Min_cycle;Max_cycle;Signal;HPM_P1;HPM_P2
2022/07/27 00:00:15;;;;;;;5.80;2.20;;;14.10;99.90;;;;;;6212925;22;20011;-80
2022/07/27 00:02:41;;;;;;;4.93;1.00;;;14.10;99.90;;;;;;6257076;22;20019;-77
2022/07/27 00:05:07;;;;;;;3.50;0.95;;;14.10;99.90;;;;;;6205966;22;20012;-80
2022/07/27 00:07:32;;;;;;;5.68;1.65;;;14.10;99.90;;;;;;6229033;22;20018;-80
2022/07/27 00:09:59;;;;;;;2.35;1.00;;;14.10;99.90;;;;;;6206913;22;20011;-78
2022/07/27 00:12:26;;;;;;;2.78;0.95;;;14.00;99.90;;;;;;6232055;22;20008;-79
2022/07/27 00:14:52;;;;;;;1.98;1.38;;;14.00;99.90;;;;;;6232482;22;20225;-80
2022/07/27 00:17:22;;;;;;;2.35;1.05;;;14.00;99.90;;;;;;6205136;22;20071;-80
2022/07/27 00:19:49;;;;;;;4.85;1.10;;;14.00;99.90;;;;;;6207598;22;20004;-81
2022/07/27 00:22:14;;;;;;;2.88;1.50;;;14.00;99.90;;;;;;6230485;22;20014;-79
2022/07/27 00:24:41;;;;;;;3.08;1.15;;;14.00;99.90;;;;;;6230879;22;20202;-79
2022/07/27 00:27:07;;;;;;;3.97;1.23;;;14.10;99.90;;;;;;6205744;22;20054;-78
2022/07/27 00:33:23;;;;;;;3.83;1.30;;;14.20;99.90;;;;;;6126345;23;20018;-82
2022/07/27 00:35:48;;;;;;;2.92;1.35;;;14.20;99.90;;;;;;6225861;22;20035;-81
2022/07/27 00:38:15;;;;;;;3.67;1.10;;;14.20;99.90;;;;;;6230418;22;20038;-81
2022/07/27 00:40:41;;;;;;;4.88;1.17;;;14.10;99.90;;;;;;6203605;22;20019;-80
2022/07/27 00:43:06;;;;;;;2.65;1.05;;;14.10;99.90;;;;;;6230246;22;20012;-79
2022/07/27 00:45:32;;;;;;;2.83;0.98;;;14.10;99.90;;;;;;6206561;22;20011;-79
2022/07/27 00:47:58;;;;;;;3.67;1.38;;;14.10;99.90;;;;;;6256107;22;20007;-78
2022/07/27 00:50:27;;;;;;;6.55;1.60;;;14.10;99.90;;;;;;6182188;22;20019;-77
2022/07/27 00:52:54;;;;;;;3.55;1.05;;;14.00;99.90;;;;;;6180915;22;20042;-79
2022/07/27 00:55:20;;;;;;;1.95;0.90;;;14.00;99.90;;;;;;6206297;22;20232;-80
2022/07/27 00:57:46;;;;;;;2.35;0.82;;;13.90;99.90;;;;;;6204576;22;20011;-80
2022/07/27 01:00:12;;;;;;;3.88;1.05;;;13.80;99.90;;;;;;6204434;22;20066;-80
2022/07/27 01:02:38;;;;;;;3.72;1.17;;;13.80;99.90;;;;;;6204727;22;20088;-80
2022/07/27 01:05:04;;;;;;;2.78;0.90;;;13.70;99.90;;;;;;6204506;22;20020;-78
2022/07/27 01:07:31;;;;;;;2.47;1.38;;;13.60;99.90;;;;;;6228519;22;20015;-81
2022/07/27 01:09:58;;;;;;;2.97;1.10;;;13.60;99.90;;;;;;6179261;22;20042;-80
2022/07/27 01:12:26;;;;;;;5.15;1.23;;;13.50;99.90;;;;;;6204163;22;20008;-78
2022/07/27 01:14:54;;;;;;;3.65;1.17;;;13.40;99.90;;;;;;6229211;22;20016;-78
2022/07/27 01:17:20;;;;;;;3.05;1.10;;;13.30;99.90;;;;;;6227836;22;20023;-80
2022/07/27 01:19:46;;;;;;;1.65;1.20;;;13.40;99.90;;;;;;6229891;22;20011;-80
2022/07/27 01:22:12;;;;;;;5.72;1.27;;;13.30;99.90;;;;;;6201307;22;20012;-78
2022/07/27 01:24:38;;;;;;;4.63;1.40;;;13.20;99.90;;;;;;6229731;22;20292;-78
2022/07/27 01:27:04;;;;;;;4.38;1.55;;;13.30;99.90;;;;;;6256834;22;20302;-76
2022/07/27 01:29:31;;;;;;;2.88;1.10;;;13.20;99.90;;;;;;6205735;22;20007;-79
2022/07/27 01:31:58;;;;;;;2.80;1.23;;;13.20;99.90;;;;;;6205098;22;20018;-78
2022/07/27 01:34:44;;;;;;;3.25;1.10;;;13.20;99.90;;;;;;6229460;22;20016;-77
2022/07/27 01:37:09;;;;;;;3.25;1.20;;;13.20;99.90;;;;;;6234821;22;20082;-79
2022/07/27 01:39:35;;;;;;;5.30;1.30;;;13.10;99.90;;;;;;6207801;22;20065;-81
2022/07/27 01:42:02;;;;;;;5.88;1.75;;;13.10;99.90;;;;;;6232211;22;20011;-79
2022/07/27 01:44:28;;;;;;;3.05;1.17;;;13.20;99.90;;;;;;6232541;22;20012;-78
2022/07/27 01:46:54;;;;;;;4.15;1.40;;;13.10;99.90;;;;;;6257096;22;20057;-80
2022/07/27 01:49:20;;;;;;;3.50;0.95;;;13.10;99.90;;;;;;6231144;22;20080;-78
2022/07/27 01:51:45;;;;;;;5.32;1.30;;;13.10;99.90;;;;;;6182416;22;20026;-79
2022/07/27 01:54:11;;;;;;;6.63;1.30;;;13.00;99.90;;;;;;6252545;22;20161;-77
2022/07/27 01:56:37;;;;;;;3.22;1.10;;;13.00;99.90;;;;;;6255397;22;20070;-76
2022/07/27 01:59:03;;;;;;;4.63;1.40;;;12.90;99.90;;;;;;6205681;22;20008;-77
2022/07/27 02:01:28;;;;;;;8.15;1.60;;;12.90;99.90;;;;;;6229998;22;20012;-77
2022/07/27 02:03:54;;;;;;;4.63;1.30;;;12.90;99.90;;;;;;6228496;22;20039;-78
2022/07/27 02:06:20;;;;;;;5.85;1.10;;;12.90;99.90;;;;;;6255334;22;20090;-77
2022/07/27 02:09:19;;;;;;;6.53;1.60;;;12.90;99.90;;;;;;6230282;22;20035;-79
2022/07/27 02:15:04;;;;;;;4.15;1.38;;;13.00;99.90;;;;;;6257507;22;20097;-80
2022/07/27 02:17:56;;;;;;;5.03;1.40;;;13.00;99.90;;;;;;6233326;22;20012;-80
2022/07/27 02:20:23;;;;;;;5.63;1.30;;;12.90;99.90;;;;;;6231708;22;20071;-79
2022/07/27 02:26:23;;;;;;;4.47;1.20;;;13.10;99.90;;;;;;6241252;23;20020;-80
2022/07/27 02:28:49;;;;;;;4.78;1.30;;;13.20;99.90;;;;;;6201654;23;20042;-79
2022/07/27 02:31:14;;;;;;;5.05;1.45;;;13.20;99.90;;;;;;6201064;23;20030;-78
2022/07/27 02:33:45;;;;;;;3.80;1.23;;;13.10;99.90;;;;;;6201667;23;20008;-77
2022/07/27 02:36:11;;;;;;;7.30;1.40;;;13.20;99.90;;;;;;6151917;23;20042;-77
2022/07/27 02:38:37;;;;;;;5.32;1.90;;;13.10;99.90;;;;;;6175078;23;20012;-78
2022/07/27 02:41:03;;;;;;;3.22;1.08;;;13.10;99.90;;;;;;6201081;23;20047;-78
2022/07/27 02:43:33;;;;;;;4.05;1.30;;;13.10;99.90;;;;;;6202688;23;20294;-77
2022/07/27 02:46:02;;;;;;;6.80;1.55;;;13.00;99.90;;;;;;6199391;23;20012;-77
2022/07/27 02:48:40;;;;;;;3.20;1.27;;;13.00;99.90;;;;;;6177580;23;20008;-78
2022/07/27 02:51:06;;;;;;;3.70;1.67;;;12.90;99.90;;;;;;6201410;23;20019;-78
2022/07/27 02:53:32;;;;;;;4.30;1.23;;;13.00;99.90;;;;;;6201317;23;20016;-78
2022/07/27 02:56:35;;;;;;;4.63;1.40;;;13.10;99.90;;;;;;6174824;23;20032;-78
2022/07/27 02:59:12;;;;;;;6.88;1.50;;;13.00;99.90;;;;;;6200548;23;20014;-79
2022/07/27 03:01:37;;;;;;;6.40;2.05;;;13.00;99.90;;;;;;6200559;23;20012;-78
2022/07/27 03:04:03;;;;;;;4.00;1.60;;;13.00;99.90;;;;;;6226411;23;20210;-80
2022/07/27 03:06:29;;;;;;;5.25;1.80;;;13.00;99.90;;;;;;6150897;23;20012;-79
2022/07/27 03:08:55;;;;;;;6.43;1.90;;;12.90;99.90;;;;;;6176123;23;20319;-77
2022/07/27 03:11:21;;;;;;;5.00;2.28;;;12.90;99.90;;;;;;6200952;23;20012;-77
2022/07/27 03:13:46;;;;;;;6.82;2.40;;;12.90;99.90;;;;;;6152837;23;20015;-79
2022/07/27 03:16:12;;;;;;;6.75;1.98;;;12.90;99.90;;;;;;6200223;23;20016;-76
2022/07/27 03:18:38;;;;;;;4.50;2.38;;;12.80;99.90;;;;;;6227994;23;20206;-78
2022/07/27 03:21:07;;;;;;;5.90;2.20;;;12.90;99.90;;;;;;6207621;22;20012;-79
2022/07/27 03:23:43;;;;;;;5.38;2.30;;;12.90;99.90;;;;;;6232820;22;20026;-76
2022/07/27 03:26:09;;;;;;;6.00;2.40;;;13.20;99.90;;;;;;6228522;22;20293;-79
2022/07/27 03:28:35;;;;;;;9.75;2.75;;;12.80;99.90;;;;;;6207013;22;20023;-78
2022/07/27 03:31:01;;;;;;;4.95;2.13;;;12.90;99.90;;;;;;6231566;22;20019;-78
2022/07/27 03:33:27;;;;;;;5.93;2.28;;;12.90;99.90;;;;;;6205828;22;20278;-79
2022/07/27 03:35:55;;;;;;;7.32;2.22;;;12.90;99.90;;;;;;6228749;22;20007;-79
2022/07/27 03:38:22;;;;;;;5.30;2.00;;;12.80;99.90;;;;;;6230748;22;20012;-77
2022/07/27 03:40:48;;;;;;;4.88;1.92;;;12.90;99.90;;;;;;6255239;22;20165;-78
2022/07/27 03:43:16;;;;;;;7.30;2.03;;;13.00;99.90;;;;;;6229422;22;20207;-77
2022/07/27 03:45:47;;;;;;;4.18;1.58;;;12.90;99.90;;;;;;6228244;22;20023;-78
2022/07/27 03:48:21;;;;;;;4.57;1.70;;;13.00;99.90;;;;;;6180131;22;20071;-78
2022/07/27 03:50:47;;;;;;;3.75;1.67;;;13.00;99.90;;;;;;6231948;22;20197;-77
2022/07/27 03:53:16;;;;;;;3.40;1.60;;;12.90;99.90;;;;;;6230829;22;20014;-77
2022/07/27 03:55:42;;;;;;;4.90;1.63;;;13.00;99.90;;;;;;6229217;22;20016;-78
2022/07/27 03:58:08;;;;;;;3.00;1.48;;;13.00;99.90;;;;;;6229230;22;20314;-80
2022/07/27 04:00:35;;;;;;;2.78;1.52;;;13.00;99.90;;;;;;6230447;22;20015;-79
2022/07/27 04:03:01;;;;;;;6.40;1.30;;;13.10;99.90;;;;;;6280183;22;20026;-80
2022/07/27 04:05:27;;;;;;;5.60;1.45;;;13.00;99.90;;;;;;6255600;22;20053;-79
2022/07/27 04:07:52;;;;;;;6.22;2.05;;;13.20;99.90;;;;;;6229829;22;20004;-81
2022/07/27 04:10:18;;;;;;;4.55;2.13;;;13.10;99.90;;;;;;6205193;22;20049;-82
2022/07/27 04:12:44;;;;;;;7.18;2.58;;;13.20;99.90;;;;;;6230277;22;20015;-81
2022/07/27 04:15:10;;;;;;;8.27;2.80;;;13.10;99.90;;;;;;6256112;22;20012;-79
2022/07/27 04:17:35;;;;;;;8.77;3.13;;;13.20;99.90;;;;;;6227668;22;20007;-80
2022/07/27 04:20:01;;;;;;;13.63;3.17;;;13.20;99.90;;;;;;6231830;22;20097;-80
2022/07/27 04:22:27;;;;;;;7.55;3.55;;;13.20;99.90;;;;;;6226495;22;20301;-79
2022/07/27 04:24:53;;;;;;;4.85;2.95;;;13.20;99.90;;;;;;6231996;22;20015;-80
2022/07/27 04:27:18;;;;;;;6.13;2.78;;;13.10;99.90;;;;;;6229777;22;20297;-81
2022/07/27 04:29:47;;;;;;;13.20;3.35;;;12.70;99.90;;;;;;6230597;22;20037;-78
2022/07/27 04:32:24;;;;;;;6.15;2.60;;;12.70;99.90;;;;;;6228970;22;20018;-78
2022/07/27 04:34:49;;;;;;;11.18;2.45;;;12.70;99.90;;;;;;6233899;22;20014;-78
2022/07/27 04:37:15;;;;;;;5.78;2.70;;;13.20;99.90;;;;;;6179873;22;20289;-81
2022/07/27 04:39:41;;;;;;;8.23;2.58;;;13.10;99.90;;;;;;6205590;22;20066;-81
2022/07/27 04:42:07;;;;;;;6.65;2.42;;;13.10;99.90;;;;;;6183580;22;20019;-81
2022/07/27 04:44:35;;;;;;;5.28;2.40;;;13.20;99.90;;;;;;6207675;22;20019;-81
2022/07/27 04:47:01;;;;;;;5.18;2.00;;;13.30;99.90;;;;;;6257533;22;20012;-81
2022/07/27 04:49:27;;;;;;;8.18;2.80;;;13.30;99.90;;;;;;6232383;22;20038;-80
2022/07/27 04:51:53;;;;;;;4.70;2.17;;;13.40;99.90;;;;;;6233144;22;20024;-80
2022/07/27 04:54:27;;;;;;;6.72;2.20;;;13.50;99.90;;;;;;6180826;22;20020;-83
2022/07/27 04:56:53;;;;;;;3.85;1.98;;;13.50;99.90;;;;;;6234788;22;20337;-81
2022/07/27 04:59:19;;;;;;;4.35;2.03;;;13.60;99.90;;;;;;6232514;22;20069;-82
2022/07/27 05:01:45;;;;;;;7.63;1.95;;;13.70;99.90;;;;;;6234700;22;20018;-80
2022/07/27 05:04:10;;;;;;;4.97;2.00;;;13.80;99.90;;;;;;6258272;22;20018;-82
2022/07/27 05:06:39;;;;;;;4.85;2.00;;;13.80;99.90;;;;;;6257246;22;20046;-79
2022/07/27 05:09:05;;;;;;;6.53;1.90;;;13.80;99.90;;;;;;6257075;22;20233;-81
2022/07/27 05:11:33;;;;;;;5.80;1.65;;;13.90;99.90;;;;;;6233817;22;20045;-82
2022/07/27 05:13:59;;;;;;;6.70;2.15;;;13.90;99.90;;;;;;6206789;22;20037;-79
2022/07/27 05:16:25;;;;;;;6.50;1.55;;;13.90;99.90;;;;;;6204089;22;20305;-79
2022/07/27 05:18:50;;;;;;;5.32;1.80;;;14.00;99.90;;;;;;6232225;22;20058;-79
2022/07/27 05:21:18;;;;;;;3.05;1.30;;;14.00;99.90;;;;;;6233173;22;20163;-79
2022/07/27 05:24:29;;;;;;;4.97;2.30;;;14.20;99.90;;;;;;6204777;23;20295;-79
2022/07/27 05:27:04;;;;;;;7.30;2.78;;;14.40;99.90;;;;;;6173085;23;20035;-79
2022/07/27 05:30:00;;;;;;;5.43;2.35;;;14.30;99.90;;;;;;6201661;23;20012;-78
2022/07/27 05:32:27;;;;;;;5.88;2.35;;;13.90;99.90;;;;;;6222694;23;20337;-79
2022/07/27 05:35:13;;;;;;;5.38;2.45;;;14.40;99.90;;;;;;6200509;23;20114;-82
2022/07/27 05:37:39;;;;;;;8.02;2.38;;;13.80;99.90;;;;;;6199889;23;20008;-81
2022/07/27 05:40:26;;;;;;;7.22;3.30;;;14.30;99.90;;;;;;6177971;23;20008;-82
2022/07/27 05:43:05;;;;;;;8.60;2.55;;;13.40;99.90;;;;;;6199256;23;20008;-81
2022/07/27 05:45:40;;;;;;;7.88;2.40;;;14.30;99.90;;;;;;6179101;23;20071;-82
2022/07/27 05:48:11;;;;;;;4.28;1.83;;;14.40;99.90;;;;;;6178130;23;20070;-81
2022/07/27 05:50:40;;;;;;;6.78;2.47;;;14.40;99.90;;;;;;6202988;23;20239;-82
2022/07/27 05:53:06;;;;;;;4.32;2.05;;;14.40;99.90;;;;;;6203036;23;20220;-70
2022/07/27 05:55:51;;;;;;;4.43;1.90;;;14.50;99.90;;;;;;6203395;23;20067;-83
2022/07/27 05:58:16;;;;;;;11.15;2.60;;;14.50;99.90;;;;;;6203601;23;20046;-80
2022/07/27 06:00:47;;;;;;;7.50;2.47;;;14.40;99.90;;;;;;6228131;23;20012;-81
2022/07/27 06:03:13;;;;;;;7.10;2.35;;;15.10;99.90;;;;;;6178474;23;20012;-81
2022/07/27 06:05:39;;;;;;;7.30;2.15;;;14.60;99.90;;;;;;6228315;23;20305;-80
2022/07/27 06:08:08;;;;;;;11.52;2.58;;;14.60;99.90;;;;;;6177054;23;20058;-82
2022/07/27 06:10:49;;;;;;;8.80;2.50;;;14.70;99.90;;;;;;6178567;23;20210;-80
2022/07/27 06:13:24;;;;;;;7.72;2.10;;;14.90;99.90;;;;;;6180287;23;20043;-81
2022/07/27 06:15:55;;;;;;;4.90;2.00;;;15.00;99.90;;;;;;6201661;23;20008;-82
2022/07/27 06:18:21;;;;;;;5.90;2.28;;;15.00;99.90;;;;;;6179670;23;20018;-81
2022/07/27 06:20:47;;;;;;;7.55;2.20;;;15.00;99.90;;;;;;6204331;23;20012;-83
2022/07/27 06:23:13;;;;;;;7.38;2.40;;;15.30;99.90;;;;;;6229244;23;20183;-84
2022/07/27 06:25:39;;;;;;;8.02;2.33;;;15.20;99.90;;;;;;6203887;23;20012;-82
2022/07/27 06:28:05;;;;;;;5.30;2.15;;;15.30;99.90;;;;;;6203930;23;20353;-82
2022/07/27 06:31:05;;;;;;;7.32;2.40;;;15.40;99.90;;;;;;6229510;23;20054;-83
2022/07/27 06:33:31;;;;;;;7.32;2.17;;;15.30;99.90;;;;;;6173063;23;20008;-81
2022/07/27 06:36:01;;;;;;;8.20;2.40;;;15.10;99.90;;;;;;6230016;23;20042;-82
2022/07/27 06:38:30;;;;;;;5.72;2.15;;;15.50;99.90;;;;;;6204476;23;20012;-83
2022/07/27 06:41:32;;;;;;;6.90;2.30;;;15.00;99.90;;;;;;6205551;23;20012;-82
2022/07/27 06:44:30;;;;;;;6.22;2.33;;;15.30;99.90;;;;;;6229774;23;20077;-81
2022/07/27 06:47:00;;;;;;;11.00;2.70;;;15.30;99.90;;;;;;6204530;23;20079;-81
2022/07/27 06:49:37;;;;;;;9.65;2.40;;;15.40;99.90;;;;;;6204200;23;20046;-80
2022/07/27 06:52:29;;;;;;;5.03;2.00;;;15.30;99.90;;;;;;6179640;23;20053;-82
2022/07/27 06:55:02;;;;;;;;;;;15.30;99.90;;;;;;6201631;23;20201;-80
2022/07/27 06:58:11;;;;;;;4.82;2.28;;;15.70;99.90;;;;;;6203900;23;19954;-83
2022/07/27 07:00:42;;;;;;;7.60;1.83;;;15.90;99.90;;;;;;6185634;23;20008;-81
2022/07/27 07:07:45;;;;;;;6.53;1.50;;;15.90;99.90;;;;;;5961467;24;20185;-82
2022/07/27 07:10:13;;;;;;;7.10;1.98;;;16.10;99.90;;;;;;5961292;24;20169;-83
2022/07/27 07:13:18;;;;;;;5.30;1.90;;;16.50;99.90;;;;;;6060708;23;20011;-84
2022/07/27 07:16:05;;;;;;;5.82;1.77;;;16.40;99.90;;;;;;6041651;23;20066;-84
2022/07/27 07:18:31;;;;;;;3.88;1.38;;;16.80;99.90;;;;;;6023993;23;20081;-84
2022/07/27 07:21:03;;;;;;;8.20;1.60;;;16.90;99.90;;;;;;6051918;23;20180;-83
2022/07/27 07:23:42;;;;;;;9.38;1.67;;;17.30;99.90;;;;;;6052786;23;20241;-83
2022/07/27 07:26:43;;;;;;;5.50;1.40;;;17.20;99.90;;;;;;6054123;23;20018;-81
2022/07/27 07:29:22;;;;;;;2.83;1.10;;;16.90;99.90;;;;;;6080378;23;20014;-83
2022/07/27 07:31:48;;;;;;;5.28;1.58;;;16.60;99.90;;;;;;6175621;23;20016;-80
2022/07/27 07:34:13;;;;;;;3.53;1.17;;;16.50;99.90;;;;;;6200574;23;20075;-79
2022/07/27 07:36:51;;;;;;;3.00;1.25;;;16.20;99.90;;;;;;6201615;23;20242;-82
2022/07/27 07:39:17;;;;;;;5.60;1.45;;;16.10;99.90;;;;;;6198183;23;20071;-80
2022/07/27 07:42:00;;;;;;;4.28;1.67;;;15.60;99.90;;;;;;6250590;22;20027;-82
2022/07/27 07:44:34;;;;;;;6.07;1.80;;;15.40;99.90;;;;;;6202024;23;20015;-80
2022/07/27 07:47:00;;;;;;;5.93;1.50;;;15.30;99.90;;;;;;6199173;23;20238;-78
2022/07/27 07:49:26;;;;;;;6.55;1.98;;;15.30;99.90;;;;;;6200107;23;20040;-80
2022/07/27 07:51:52;;;;;;;7.43;1.55;;;15.10;99.90;;;;;;6200584;23;20302;-83
2022/07/27 07:54:38;;;;;;;2.40;1.25;;;15.30;99.90;;;;;;6200063;23;20016;-79
2022/07/27 07:57:04;;;;;;;3.65;1.50;;;15.20;99.90;;;;;;6199609;23;20012;-79
2022/07/27 07:59:30;;;;;;;4.38;1.30;;;15.10;99.90;;;;;;6198868;23;20026;-77
2022/07/27 08:02:02;;;;;;;4.03;1.50;;;15.10;99.90;;;;;;6198546;23;20012;-78
2022/07/27 08:04:30;;;;;;;4.25;1.48;;;15.20;99.90;;;;;;6200205;23;20077;-79
2022/07/27 08:06:59;;;;;;;2.40;1.27;;;15.30;99.90;;;;;;6200223;23;20012;-80
2022/07/27 08:09:27;;;;;;;2.75;1.17;;;15.40;99.90;;;;;;6200112;23;20027;-78
2022/07/27 08:11:53;;;;;;;6.88;1.50;;;15.50;99.90;;;;;;6152299;23;20063;-79
2022/07/27 08:14:18;;;;;;;4.93;1.67;;;15.60;99.90;;;;;;6224995;23;20069;-81
2022/07/27 08:16:44;;;;;;;3.40;1.35;;;15.60;99.90;;;;;;6200045;23;20195;-79
2022/07/27 08:19:25;;;;;;;5.72;1.70;;;15.70;99.90;;;;;;6200390;23;20075;-78
2022/07/27 08:21:51;;;;;;;5.68;1.20;;;15.80;99.90;;;;;;6200306;23;20016;-79
2022/07/27 08:24:17;;;;;;;6.20;1.48;;;15.80;99.90;;;;;;6174994;23;20083;-79
2022/07/27 08:26:43;;;;;;;3.40;1.40;;;15.70;99.90;;;;;;6199496;23;20023;-80
2022/07/27 08:29:09;;;;;;;6.43;1.30;;;15.80;99.90;;;;;;6224253;23;20351;-78
2022/07/27 08:31:38;;;;;;;4.93;1.65;;;15.70;99.90;;;;;;6225218;23;20302;-79
2022/07/27 08:34:04;;;;;;;4.32;1.48;;;16.20;99.90;;;;;;6199368;23;20012;-80
2022/07/27 08:36:30;;;;;;;6.57;1.42;;;15.50;99.90;;;;;;6175230;23;20023;-79
2022/07/27 08:38:56;;;;;;;2.38;1.42;;;15.50;99.90;;;;;;6200350;23;20310;-79
2022/07/27 08:41:27;;;;;;;7.05;1.75;;;15.60;99.90;;;;;;6176235;23;20190;-79
2022/07/27 08:43:57;;;;;;;5.13;1.52;;;15.60;99.90;;;;;;6201843;23;20019;-80
2022/07/27 08:46:25;;;;;;;4.25;1.13;;;15.90;99.90;;;;;;6201335;23;20032;-79
2022/07/27 08:48:52;;;;;;;4.40;1.40;;;15.80;99.90;;;;;;6254106;23;20020;-80
2022/07/27 08:52:19;;;;;;;4.82;1.45;;;16.10;99.90;;;;;;6201756;23;20059;-79
2022/07/27 08:54:54;;;;;;;3.67;1.60;;;16.20;99.90;;;;;;6157304;23;20231;-82
2022/07/27 08:57:20;;;;;;;5.82;1.30;;;16.30;99.90;;;;;;6152296;23;20031;-80
2022/07/27 08:59:46;;;;;;;5.47;1.40;;;16.50;99.90;;;;;;6202039;23;20004;-80
2022/07/27 09:02:13;;;;;;;4.32;1.20;;;16.60;99.90;;;;;;6201054;23;20012;-79
2022/07/27 09:04:42;;;;;;;4.78;1.40;;;16.90;99.90;;;;;;6201993;23;20198;-80
2022/07/27 09:07:08;;;;;;;3.85;1.33;;;16.80;99.90;;;;;;6200360;23;20047;-78
2022/07/27 09:09:53;;;;;;;4.03;1.35;;;17.10;99.90;;;;;;6150829;23;20317;-78
2022/07/27 09:12:29;;;;;;;4.20;1.30;;;17.10;99.90;;;;;;6176546;23;20171;-78
2022/07/27 09:15:25;;;;;;;3.60;1.30;;;17.10;99.90;;;;;;6202516;23;20024;-79
2022/07/27 09:17:51;;;;;;;2.88;1.00;;;17.20;99.90;;;;;;6163845;23;20168;-80
2022/07/27 09:20:19;;;;;;;4.60;1.58;;;17.40;99.90;;;;;;6201759;23;20014;-80
2022/07/27 09:22:53;;;;;;;3.13;1.17;;;17.60;99.90;;;;;;6225541;23;20012;-81
2022/07/27 09:25:24;;;;;;;4.47;1.10;;;17.70;99.90;;;;;;6226494;23;20055;-81
2022/07/27 09:27:58;;;;;;;3.95;1.17;;;17.80;99.90;;;;;;6200982;23;20071;-79
2022/07/27 09:30:26;;;;;;;2.70;0.90;;;18.00;99.90;;;;;;6177739;23;20047;-79
2022/07/27 09:33:05;;;;;;;4.18;1.10;;;17.90;99.90;;;;;;6176303;23;20016;-77
2022/07/27 09:35:34;;;;;;;6.55;1.20;;;18.00;99.90;;;;;;6225579;23;20016;-78
2022/07/27 09:38:18;;;;;;;4.53;1.00;;;18.10;99.90;;;;;;6226382;23;20027;-78
2022/07/27 09:40:45;;;;;;;3.10;1.00;;;18.40;99.90;;;;;;6200838;23;20079;-80
2022/07/27 09:43:12;;;;;;;6.45;1.20;;;18.60;99.90;;;;;;6201267;23;20012;-78
2022/07/27 09:45:43;;;;;;;2.47;0.93;;;18.80;99.90;;;;;;6226243;23;20012;-79
2022/07/27 09:48:19;;;;;;;3.20;1.00;;;18.90;99.90;;;;;;6202617;23;20226;-78
2022/07/27 09:50:57;;;;;;;2.53;0.85;;;18.80;99.90;;;;;;6202458;23;20082;-79
2022/07/27 09:53:25;;;;;;;2.05;0.98;;;18.80;99.90;;;;;;6227980;23;20190;-78
2022/07/27 09:55:58;;;;;;;3.60;0.90;;;19.00;99.90;;;;;;6228743;23;20329;-79
2022/07/27 09:58:45;;;;;;;5.70;0.80;;;18.80;99.90;;;;;;6202172;23;20093;-79
2022/07/27 10:01:14;;;;;;;4.03;1.20;;;18.70;99.90;;;;;;6228333;23;20326;-79
2022/07/27 10:03:41;;;;;;;1.60;0.80;;;18.80;99.90;;;;;;6203048;23;20039;-81
2022/07/27 10:06:08;;;;;;;2.88;1.00;;;18.70;99.90;;;;;;6202311;23;20534;-77
2022/07/27 10:08:36;;;;;;;2.30;0.90;;;18.90;99.90;;;;;;6225649;23;20183;-78
2022/07/27 10:11:02;;;;;;;1.63;0.90;;;19.10;99.90;;;;;;6201859;23;20016;-79
2022/07/27 10:13:27;;;;;;;4.95;1.00;;;19.00;99.90;;;;;;6199296;23;20070;-77
2022/07/27 10:15:54;;;;;;;2.80;0.90;;;19.00;99.90;;;;;;6199264;23;20071;-78
2022/07/27 10:18:58;;;;;;;2.08;0.82;;;19.10;99.90;;;;;;6200522;23;20035;-80
2022/07/27 10:21:35;;;;;;;2.38;0.80;;;18.90;99.90;;;;;;6224930;23;20360;-77
2022/07/27 10:24:06;;;;;;;5.65;1.23;;;18.90;99.90;;;;;;6198875;23;20020;-80
2022/07/27 10:26:39;;;;;;;2.83;0.80;;;18.70;99.90;;;;;;6223989;23;20023;-78
2022/07/27 10:29:15;;;;;;;3.03;1.17;;;18.70;99.90;;;;;;6200362;23;20024;-80
2022/07/27 10:31:54;;;;;;;3.15;0.85;;;19.00;99.90;;;;;;6200650;23;20016;-77
2022/07/27 10:34:40;;;;;;;2.67;1.05;;;19.50;99.90;;;;;;6199511;23;20008;-77
2022/07/27 10:37:13;;;;;;;3.13;1.10;;;19.70;99.90;;;;;;6199712;23;20027;-78
2022/07/27 10:39:42;;;;;;;4.03;1.10;;;19.30;99.90;;;;;;6200737;23;20012;-76
2022/07/27 10:42:23;;;;;;;3.75;0.90;;;19.70;99.90;;;;;;6225588;23;20027;-78
2022/07/27 10:45:15;;;;;;;6.20;1.50;;;20.40;99.90;;;;;;6199681;23;20030;-77
2022/07/27 10:47:47;;;;;;;3.85;0.90;;;19.60;99.90;;;;;;6201473;23;20067;-80
2022/07/27 10:50:16;;;;;;;3.65;0.93;;;19.20;99.90;;;;;;6202967;23;20016;-77
2022/07/27 10:52:49;;;;;;;1.92;0.90;;;18.80;99.90;;;;;;6202818;23;20297;-79
2022/07/27 10:55:30;;;;;;;2.53;1.02;;;18.80;99.90;;;;;;6203077;23;20331;-79
2022/07/27 10:58:17;;;;;;;1.40;0.80;;;19.10;99.90;;;;;;6202753;23;20298;-78
2022/07/27 11:00:55;;;;;;;2.58;0.93;;;20.20;99.90;;;;;;6201833;23;20015;-79
2022/07/27 11:03:22;;;;;;;3.10;0.82;;;20.90;99.90;;;;;;6202201;23;20205;-78
2022/07/27 11:05:56;;;;;;;6.60;0.80;;;20.50;99.90;;;;;;6202495;23;20016;-80
2022/07/27 11:08:30;;;;;;;2.45;0.90;;;20.10;99.90;;;;;;6202775;23;20013;-77
2022/07/27 11:10:57;;;;;;;3.15;0.80;;;19.70;99.90;;;;;;6228571;23;20075;-80
2022/07/27 11:13:27;;;;;;;1.45;0.90;;;19.40;99.90;;;;;;6227265;23;20015;-78
2022/07/27 11:16:05;;;;;;;2.58;0.80;;;19.60;99.90;;;;;;6199772;23;20008;-76
2022/07/27 11:18:43;;;;;;;2.60;0.95;;;19.90;99.90;;;;;;6252801;23;20016;-76
2022/07/27 11:21:19;;;;;;;1.88;0.90;;;20.60;99.90;;;;;;6201323;23;20400;-79
2022/07/27 11:23:47;;;;;;;2.17;0.77;;;20.20;99.90;;;;;;6202191;23;20020;-79
2022/07/27 11:26:14;;;;;;;3.05;1.02;;;20.00;99.90;;;;;;6227227;23;20012;-79
2022/07/27 11:28:41;;;;;;;2.08;0.98;;;19.60;99.90;;;;;;6202074;23;20016;-79
2022/07/27 11:31:08;;;;;;;5.50;1.33;;;19.40;99.90;;;;;;6226177;23;20008;-79
2022/07/27 11:33:34;;;;;;;3.30;0.80;;;19.50;99.90;;;;;;6201804;23;20290;-78
2022/07/27 11:36:05;;;;;;;3.67;1.08;;;19.60;99.90;;;;;;6202511;23;20015;-77
2022/07/27 11:38:45;;;;;;;2.15;0.75;;;19.40;99.90;;;;;;6227492;23;20058;-80
2022/07/27 11:41:20;;;;;;;3.03;1.00;;;19.40;99.90;;;;;;6202222;23;20039;-79
2022/07/27 11:43:46;;;;;;;5.90;1.10;;;19.60;99.90;;;;;;6201923;23;20066;-79
2022/07/27 11:46:12;;;;;;;4.50;1.05;;;19.50;99.90;;;;;;6177462;23;20071;-78
2022/07/27 11:48:37;;;;;;;2.22;1.00;;;19.20;99.90;;;;;;6199808;23;20020;-77
2022/07/27 11:51:04;;;;;;;2.45;1.00;;;18.90;99.90;;;;;;6178042;23;20016;-78
2022/07/27 11:53:30;;;;;;;4.05;1.00;;;18.90;99.90;;;;;;6227610;23;20215;-78
2022/07/27 11:55:56;;;;;;;2.45;0.80;;;19.50;99.90;;;;;;6177447;23;20011;-79
2022/07/27 11:58:21;;;;;;;1.80;0.82;;;20.40;99.90;;;;;;6177637;23;20065;-79
2022/07/27 12:00:47;;;;;;;3.95;1.33;;;20.80;99.90;;;;;;6202481;23;20176;-79
2022/07/27 12:03:22;;;;;;;4.70;1.00;;;21.00;99.90;;;;;;6177338;23;20007;-79
2022/07/27 12:05:55;;;;;;;3.67;1.10;;;21.80;99.90;;;;;;6203008;23;20095;-77
2022/07/27 12:08:22;;;;;;;3.28;1.05;;;21.80;99.90;;;;;;6202329;23;20175;-78
2022/07/27 12:10:59;;;;;;;4.57;1.15;;;21.40;99.90;;;;;;6177197;23;20004;-77
2022/07/27 12:13:35;;;;;;;5.07;1.20;;;20.60;99.90;;;;;;6226634;23;20059;-76
2022/07/27 12:16:01;;;;;;;3.67;1.00;;;20.00;99.90;;;;;;6226523;23;20016;-78
2022/07/27 12:18:41;;;;;;;2.30;0.80;;;20.00;99.90;;;;;;6174468;23;20198;-78
2022/07/27 12:21:20;;;;;;;3.55;1.38;;;20.20;99.90;;;;;;6225956;23;20026;-76
2022/07/27 12:23:52;;;;;;;3.28;1.08;;;20.80;99.90;;;;;;6199895;23;20079;-78
2022/07/27 12:26:21;;;;;;;4.00;0.90;;;20.60;99.90;;;;;;6175255;23;20046;-79
2022/07/27 12:29:07;;;;;;;3.30;0.90;;;20.20;99.90;;;;;;6177258;23;20023;-78
2022/07/27 12:31:36;;;;;;;1.48;0.88;;;19.90;99.90;;;;;;6202470;23;20035;-77
2022/07/27 12:34:05;;;;;;;2.38;0.90;;;19.60;99.90;;;;;;6226889;23;20036;-77
2022/07/27 12:36:31;;;;;;;2.95;0.93;;;19.50;99.90;;;;;;6200992;23;20014;-77
2022/07/27 12:38:57;;;;;;;2.65;1.15;;;19.40;99.90;;;;;;6176387;23;20071;-79
2022/07/27 12:41:34;;;;;;;2.13;0.75;;;20.10;99.90;;;;;;6176741;23;20194;-76
2022/07/27 12:44:15;;;;;;;2.08;0.90;;;20.60;99.90;;;;;;6226679;23;20040;-76
2022/07/27 12:46:52;;;;;;;7.10;1.05;;;21.10;99.90;;;;;;6226394;23;20063;-77
2022/07/27 12:49:23;;;;;;;3.55;1.08;;;21.30;99.90;;;;;;6224870;23;20012;-77
2022/07/27 12:51:49;;;;;;;2.03;0.90;;;21.20;99.90;;;;;;6201198;23;20012;-77
2022/07/27 12:54:15;;;;;;;2.00;0.90;;;21.40;99.90;;;;;;6201154;23;20023;-78
2022/07/27 12:56:41;;;;;;;3.22;1.02;;;21.40;99.90;;;;;;6201072;23;20019;-77
2022/07/27 12:59:06;;;;;;;2.03;0.90;;;21.70;99.90;;;;;;6201851;23;20016;-78
2022/07/27 13:01:32;;;;;;;3.90;1.35;;;21.10;99.90;;;;;;6225545;23;20067;-80
2022/07/27 13:03:58;;;;;;;4.40;1.08;;;21.00;99.90;;;;;;6200914;23;20034;-79
2022/07/27 13:06:23;;;;;;;5.40;1.30;;;21.50;99.90;;;;;;6150987;23;20015;-77
2022/07/27 13:08:49;;;;;;;0.73;0.70;;;21.50;99.90;;;;;;6200916;23;20039;-78
2022/07/27 13:11:15;;;;;;;2.90;1.00;;;21.10;99.90;;;;;;6201642;23;20008;-79
2022/07/27 13:13:40;;;;;;;4.35;1.13;;;20.70;99.90;;;;;;6175212;23;20008;-78
2022/07/27 13:16:06;;;;;;;2.20;1.08;;;21.10;99.90;;;;;;6200648;23;20016;-77
2022/07/27 13:18:31;;;;;;;3.72;1.20;;;21.00;99.90;;;;;;6173727;23;20016;-82
2022/07/27 13:20:57;;;;;;;3.00;1.00;;;21.10;99.90;;;;;;6199097;23;20023;-79